Time;durP1;ratioP1;P1;durP2;ratioP2;P2;SDS_P1;SDS_P2;PMS_P1;PMS_P2;Temp;Humidity;BMP_temperature;BMP_pressure;BME280_temperature;BME280_humidity;BME280_pressure;Samples;Min_cycle;Max_cycle;Signal;HPM_P1;HPM_P2
2022/05/26 00:00:43;;;;;;;1.60;1.50;;;11.70;99.90;;;;;;4928498;28;20098;-86
2022/05/26 00:03:10;;;;;;;1.38;0.60;;;11.70;99.90;;;;;;4940944;28;20044;-85
2022/05/26 00:05:37;;;;;;;4.80;0.90;;;11.70;99.90;;;;;;4942640;28;20106;-86
2022/05/26 00:08:05;;;;;;;0.85;0.82;;;11.70;99.90;;;;;;4942350;28;20043;-86
2022/05/26 00:10:34;;;;;;;1.30;0.90;;;11.70;99.90;;;;;;4886717;29;20052;-86
2022/05/26 00:13:01;;;;;;;4.50;1.30;;;11.70;99.90;;;;;;4939925;29;20060;-86
2022/05/26 00:15:30;;;;;;;0.90;0.60;;;11.70;99.90;;;;;;4921449;28;20428;-87
2022/05/26 00:17:57;;;;;;;3.78;1.45;;;11.70;99.90;;;;;;4934201;29;20098;-86
2022/05/26 00:20:24;;;;;;;1.27;1.20;;;11.70;99.90;;;;;;4936112;28;20090;-86
2022/05/26 00:22:51;;;;;;;0.82;0.70;;;11.70;99.90;;;;;;4926225;28;20461;-87
2022/05/26 00:25:18;;;;;;;1.42;1.33;;;11.70;99.90;;;;;;4942322;28;20095;-86
2022/05/26 00:27:45;;;;;;;5.43;1.27;;;11.60;99.90;;;;;;4927197;29;20043;-85
2022/05/26 00:30:12;;;;;;;1.77;0.70;;;11.60;99.90;;;;;;4925638;29;20051;-86
2022/05/26 00:32:39;;;;;;;1.35;0.90;;;11.50;99.90;;;;;;4942022;28;20704;-87
2022/05/26 00:35:06;;;;;;;0.88;0.80;;;11.50;99.90;;;;;;4940651;28;20102;-86
2022/05/26 00:37:34;;;;;;;1.05;1.02;;;11.50;99.90;;;;;;4921211;28;20543;-86
2022/05/26 00:40:05;;;;;;;5.00;1.08;;;11.40;99.90;;;;;;4923966;29;20060;-87
2022/05/26 00:42:32;;;;;;;1.13;1.08;;;11.40;99.90;;;;;;4943795;28;20479;-88
2022/05/26 00:45:02;;;;;;;3.67;2.17;;;11.30;99.90;;;;;;4921435;28;20442;-86
2022/05/26 00:47:44;;;;;;;0.73;0.70;;;11.30;99.90;;;;;;4897392;28;20382;-87
2022/05/26 00:50:22;;;;;;;1.27;1.17;;;11.30;99.90;;;;;;4926730;28;20144;-87
2022/05/26 00:52:55;;;;;;;0.73;0.73;;;11.20;99.90;;;;;;4943687;28;20051;-86
2022/05/26 00:55:26;;;;;;;2.70;1.00;;;11.20;99.90;;;;;;4939259;28;20559;-86
2022/05/26 00:58:04;;;;;;;2.20;1.00;;;11.10;99.90;;;;;;4944906;28;20040;-87
2022/05/26 01:00:35;;;;;;;1.15;1.05;;;11.10;99.90;;;;;;4926470;29;20047;-85
2022/05/26 01:03:15;;;;;;;0.88;0.85;;;11.10;99.90;;;;;;4939900;28;20283;-85
2022/05/26 01:05:57;;;;;;;1.08;0.68;;;11.00;99.90;;;;;;4939042;28;20118;-85
2022/05/26 01:08:37;;;;;;;3.05;1.52;;;11.00;99.90;;;;;;4944271;28;20595;-85
2022/05/26 01:11:05;;;;;;;1.67;1.07;;;10.90;99.90;;;;;;4941805;28;20047;-86
2022/05/26 01:13:43;;;;;;;2.08;0.93;;;10.90;99.90;;;;;;4937230;28;20047;-85
2022/05/26 01:16:33;;;;;;;1.30;1.20;;;10.80;99.90;;;;;;4924341;28;20044;-85
2022/05/26 01:19:19;;;;;;;1.88;1.15;;;10.80;99.90;;;;;;4943193;28;20047;-85
2022/05/26 01:21:54;;;;;;;1.20;1.10;;;10.70;99.90;;;;;;4939515;28;21185;-86
2022/05/26 01:24:40;;;;;;;1.13;1.02;;;10.70;99.90;;;;;;4916829;28;20084;-85
2022/05/26 01:27:45;;;;;;;1.20;1.10;;;10.70;99.90;;;;;;4921988;29;20055;-85
2022/05/26 01:30:24;;;;;;;1.50;1.00;;;10.60;99.90;;;;;;4923015;28;20059;-85
2022/05/26 01:32:54;;;;;;;2.28;1.50;;;10.60;99.90;;;;;;4943555;28;20070;-85
2022/05/26 01:35:52;;;;;;;6.88;1.50;;;10.60;99.90;;;;;;4941866;28;20063;-85
2022/05/26 01:38:32;;;;;;;1.30;1.02;;;10.50;99.90;;;;;;4875602;29;20466;-85
2022/05/26 01:41:21;;;;;;;2.25;1.40;;;10.50;99.90;;;;;;4925899;29;20153;-85
2022/05/26 01:44:06;;;;;;;5.05;1.30;;;10.50;99.90;;;;;;4940503;28;20043;-85
2022/05/26 01:46:41;;;;;;;2.30;1.38;;;10.40;99.90;;;;;;4910392;29;20191;-85
2022/05/26 01:49:08;;;;;;;3.15;1.38;;;10.40;99.90;;;;;;4937598;28;20059;-85
2022/05/26 01:51:41;;;;;;;5.78;1.80;;;10.40;99.90;;;;;;4943514;28;20083;-85
2022/05/26 01:54:19;;;;;;;2.25;1.90;;;10.40;99.90;;;;;;4936838;28;20059;-85
2022/05/26 01:57:07;;;;;;;1.08;0.95;;;10.40;99.90;;;;;;4943080;28;20074;-85
2022/05/26 01:59:47;;;;;;;1.98;1.05;;;10.40;99.90;;;;;;4939841;28;20688;-85
2022/05/26 02:02:22;;;;;;;1.65;1.52;;;10.40;99.90;;;;;;4944007;28;20175;-85
2022/05/26 02:04:54;;;;;;;1.40;1.27;;;10.40;99.90;;;;;;4925338;28;20043;-85
2022/05/26 02:07:50;;;;;;;2.95;1.30;;;10.40;99.90;;;;;;4942883;28;20055;-85
2022/05/26 02:10:25;;;;;;;4.00;2.30;;;10.30;99.90;;;;;;4919273;29;20071;-85
2022/05/26 02:12:57;;;;;;;1.70;1.40;;;10.30;99.90;;;;;;4942494;28;20539;-85
2022/05/26 02:15:34;;;;;;;1.02;1.02;;;10.20;99.90;;;;;;4937578;28;20051;-85
2022/05/26 02:18:03;;;;;;;1.55;1.35;;;10.20;99.90;;;;;;4937268;28;20054;-84
2022/05/26 02:20:54;;;;;;;2.10;0.98;;;10.10;99.90;;;;;;4943692;28;20051;-84
2022/05/26 02:23:35;;;;;;;0.82;0.82;;;10.10;99.90;;;;;;4952536;28;20102;-84
2022/05/26 02:26:03;;;;;;;2.33;0.80;;;10.00;99.90;;;;;;4937625;28;20055;-84
2022/05/26 02:29:51;;;;;;;1.15;1.13;;;10.00;99.90;;;;;;4941913;28;20058;-84
2022/05/26 02:31:23;;;;;;;1.75;1.00;;;10.00;99.90;;;;;;4939304;28;20496;-84
2022/05/26 02:33:56;;;;;;;1.25;1.02;;;9.90;99.90;;;;;;4946286;28;20142;-84
2022/05/26 02:36:24;;;;;;;2.47;1.75;;;9.90;99.90;;;;;;4938733;28;20048;-84
2022/05/26 02:38:51;;;;;;;1.60;0.95;;;9.90;99.90;;;;;;4946751;28;20047;-84
2022/05/26 02:41:18;;;;;;;1.63;1.52;;;9.80;99.90;;;;;;4918016;28;20075;-85
2022/05/26 02:43:45;;;;;;;1.20;1.10;;;9.80;99.90;;;;;;4942496;28;20488;-84
2022/05/26 02:46:32;;;;;;;1.42;1.30;;;9.80;99.90;;;;;;4941557;28;20130;-84
2022/05/26 02:49:35;;;;;;;1.50;1.40;;;9.80;99.90;;;;;;4941688;28;20106;-84
2022/05/26 02:52:47;;;;;;;3.67;1.10;;;9.70;99.90;;;;;;4924330;29;20456;-84
2022/05/26 02:55:29;;;;;;;3.33;1.63;;;9.70;99.90;;;;;;4919395;28;20098;-84
2022/05/26 02:58:22;;;;;;;1.48;1.15;;;9.70;99.90;;;;;;4938716;28;20107;-84
2022/05/26 03:01:07;;;;;;;1.27;1.10;;;9.70;99.90;;;;;;4939375;28;20560;-84
2022/05/26 03:03:54;;;;;;;3.72;1.45;;;9.70;99.90;;;;;;4944059;28;20055;-84
2022/05/26 03:06:45;;;;;;;4.05;2.10;;;9.70;99.90;;;;;;4905178;28;20052;-84
2022/05/26 03:09:12;;;;;;;1.30;1.20;;;9.70;99.90;;;;;;4939243;28;20087;-84
2022/05/26 03:11:51;;;;;;;1.65;1.55;;;9.80;99.90;;;;;;4939847;28;20444;-84
2022/05/26 03:14:19;;;;;;;2.65;1.67;;;9.80;99.90;;;;;;4932525;28;20184;-83
2022/05/26 03:16:46;;;;;;;4.80;2.65;;;9.80;99.90;;;;;;4937418;28;20098;-83
2022/05/26 03:19:13;;;;;;;3.20;2.25;;;9.80;99.90;;;;;;4926704;28;20043;-84
2022/05/26 03:21:41;;;;;;;2.45;2.03;;;9.90;99.90;;;;;;4938272;28;20047;-85
2022/05/26 03:24:09;;;;;;;5.97;1.85;;;9.90;99.90;;;;;;4940861;28;20078;-85
2022/05/26 03:26:36;;;;;;;2.67;2.47;;;9.90;99.90;;;;;;4939068;28;20040;-84
2022/05/26 03:29:05;;;;;;;2.17;2.00;;;10.00;99.90;;;;;;4938440;28;20079;-84
2022/05/26 03:31:33;;;;;;;2.67;2.33;;;10.00;99.90;;;;;;4916666;28;20066;-84
2022/05/26 03:42:18;;;;;;;2.33;1.88;;;10.10;99.90;;;;;;4946815;28;20039;-83
2022/05/26 03:44:45;;;;;;;1.73;1.63;;;10.20;99.90;;;;;;4942493;28;20278;-83
2022/05/26 03:47:13;;;;;;;2.15;1.80;;;10.20;99.90;;;;;;4946983;28;20559;-83
2022/05/26 03:49:40;;;;;;;2.83;2.00;;;10.20;99.90;;;;;;4943872;28;20047;-84
2022/05/26 03:52:07;;;;;;;2.25;1.73;;;10.20;99.90;;;;;;4942099;28;20234;-85
2022/05/26 03:54:34;;;;;;;3.03;1.58;;;10.20;99.90;;;;;;4930661;28;20511;-84
2022/05/26 03:57:02;;;;;;;3.25;1.65;;;10.30;99.90;;;;;;4928282;29;20070;-83
2022/05/26 03:59:29;;;;;;;1.90;1.73;;;10.30;99.90;;;;;;4926208;29;20048;-83
2022/05/26 04:01:56;;;;;;;3.05;1.83;;;10.30;99.90;;;;;;4940828;28;20098;-84
2022/05/26 04:04:23;;;;;;;1.45;1.27;;;10.30;99.90;;;;;;4943718;28;20046;-84
2022/05/26 04:06:50;;;;;;;6.00;2.05;;;10.30;99.90;;;;;;4929026;29;20111;-84
2022/05/26 04:09:17;;;;;;;7.15;2.88;;;10.40;99.90;;;;;;4942272;28;20062;-83
2022/05/26 04:11:45;;;;;;;2.38;1.90;;;10.40;99.90;;;;;;4948657;28;20516;-83
2022/05/26 04:14:12;;;;;;;1.90;1.77;;;10.40;99.90;;;;;;4944271;28;20075;-83
2022/05/26 04:16:38;;;;;;;2.10;1.95;;;10.40;99.90;;;;;;4918021;28;20054;-83
2022/05/26 04:19:06;;;;;;;2.05;1.65;;;10.40;99.90;;;;;;4922366;29;20048;-84
2022/05/26 04:21:33;;;;;;;1.60;1.50;;;10.40;99.90;;;;;;4946551;28;20089;-83
2022/05/26 04:24:00;;;;;;;2.20;2.00;;;10.40;99.90;;;;;;4947992;28;20714;-83
2022/05/26 04:26:27;;;;;;;3.15;1.52;;;10.50;99.90;;;;;;4948603;28;20058;-83
2022/05/26 04:29:13;;;;;;;6.57;2.00;;;10.50;99.90;;;;;;4942827;28;20138;-83
2022/05/26 04:31:41;;;;;;;4.10;1.60;;;10.50;99.90;;;;;;4928795;28;20126;-83
2022/05/26 04:34:08;;;;;;;1.67;1.38;;;10.50;99.90;;;;;;4934587;28;20558;-84
2022/05/26 04:36:35;;;;;;;1.50;1.40;;;10.60;99.90;;;;;;4946762;28;20047;-84
2022/05/26 04:39:02;;;;;;;2.35;1.40;;;10.60;99.90;;;;;;4926057;28;20603;-84
2022/05/26 04:41:29;;;;;;;2.17;1.63;;;10.70;99.90;;;;;;4928881;28;20610;-83
2022/05/26 04:43:56;;;;;;;1.50;1.40;;;10.80;99.90;;;;;;4943199;28;20517;-83
2022/05/26 04:46:23;;;;;;;3.17;1.50;;;10.80;99.90;;;;;;4928337;29;20102;-84
2022/05/26 04:48:50;;;;;;;3.90;2.17;;;10.90;99.90;;;;;;4940953;28;20542;-84
2022/05/26 04:51:18;;;;;;;4.68;2.33;;;11.00;99.90;;;;;;4940705;28;20528;-85
2022/05/26 04:53:49;;;;;;;2.25;1.25;;;11.00;99.90;;;;;;4943876;28;20049;-85
2022/05/26 04:56:16;;;;;;;1.52;1.42;;;11.00;99.90;;;;;;4945698;28;20106;-86
2022/05/26 04:58:43;;;;;;;2.97;1.75;;;11.10;99.90;;;;;;4926722;29;20574;-86
2022/05/26 05:01:15;;;;;;;1.50;1.27;;;11.10;99.90;;;;;;4942953;28;20057;-86
2022/05/26 05:03:43;;;;;;;3.08;1.83;;;11.10;99.90;;;;;;4945411;28;20051;-86
2022/05/26 05:06:10;;;;;;;2.47;1.35;;;11.20;99.90;;;;;;4937514;28;20053;-86
2022/05/26 05:08:37;;;;;;;2.08;1.70;;;11.30;99.90;;;;;;4927911;28;20117;-87
2022/05/26 05:11:04;;;;;;;3.63;1.88;;;11.30;99.90;;;;;;4917789;29;20083;-86
2022/05/26 05:13:32;;;;;;;3.28;1.30;;;11.50;99.90;;;;;;4924283;29;20453;-85
2022/05/26 05:16:03;;;;;;;1.95;1.75;;;11.60;99.90;;;;;;4924945;29;20484;-86
2022/05/26 05:18:32;;;;;;;2.78;1.70;;;11.70;99.90;;;;;;4921904;29;20044;-85
2022/05/26 05:21:07;;;;;;;1.88;1.75;;;11.80;99.90;;;;;;4918364;29;20096;-87
2022/05/26 05:23:38;;;;;;;1.60;1.50;;;11.80;99.90;;;;;;4919283;29;20106;-85
2022/05/26 05:26:08;;;;;;;2.72;1.80;;;11.80;99.90;;;;;;4923708;28;20384;-84
2022/05/26 05:28:37;;;;;;;3.45;1.92;;;11.80;99.90;;;;;;4905565;29;20047;-84
2022/05/26 05:31:14;;;;;;;6.17;2.27;;;11.80;99.90;;;;;;4924723;29;20044;-84
2022/05/26 05:33:46;;;;;;;6.05;2.28;;;11.80;99.90;;;;;;4900600;29;20274;-84
2022/05/26 05:36:19;;;;;;;3.22;2.13;;;11.80;99.90;;;;;;4899317;29;20307;-85
2022/05/26 05:38:47;;;;;;;2.25;2.05;;;11.90;99.90;;;;;;4905295;29;20058;-85
2022/05/26 05:41:14;;;;;;;2.78;2.55;;;11.90;99.90;;;;;;4916998;29;20051;-85
2022/05/26 05:43:41;;;;;;;3.78;3.13;;;12.00;99.90;;;;;;4921219;29;20480;-85
2022/05/26 05:46:08;;;;;;;3.47;3.28;;;12.10;99.90;;;;;;4913674;29;20529;-86
2022/05/26 05:48:35;;;;;;;4.00;3.60;;;12.10;99.90;;;;;;4914388;29;20044;-86
2022/05/26 05:51:02;;;;;;;3.90;3.60;;;12.10;99.90;;;;;;4912340;29;20076;-86
2022/05/26 05:53:30;;;;;;;5.78;3.45;;;12.20;99.90;;;;;;4899216;29;20059;-86
2022/05/26 05:55:57;;;;;;;3.80;3.50;;;12.30;99.90;;;;;;4916658;29;20044;-86
2022/05/26 05:58:24;;;;;;;4.80;3.25;;;12.40;99.90;;;;;;4908862;29;20078;-86
2022/05/26 06:00:51;;;;;;;5.22;4.70;;;12.60;99.90;;;;;;4913407;29;20162;-86
2022/05/26 06:03:18;;;;;;;3.60;3.10;;;12.70;99.90;;;;;;4913643;28;20061;-85
2022/05/26 06:05:45;;;;;;;2.83;2.63;;;12.90;99.90;;;;;;4916242;29;20048;-84
2022/05/26 06:08:12;;;;;;;2.95;2.42;;;13.00;99.90;;;;;;4897907;29;20055;-85
2022/05/26 06:10:39;;;;;;;2.80;2.42;;;13.10;99.90;;;;;;4888627;29;20461;-85
2022/05/26 06:13:06;;;;;;;3.35;2.30;;;13.10;99.90;;;;;;4916147;29;20146;-85
2022/05/26 06:15:33;;;;;;;3.47;2.20;;;13.30;99.90;;;;;;4912027;29;20493;-85
2022/05/26 06:18:00;;;;;;;2.60;2.40;;;13.30;99.90;;;;;;4912932;29;20047;-85
2022/05/26 06:20:27;;;;;;;2.65;1.58;;;13.20;99.90;;;;;;4915466;29;20079;-85
2022/05/26 06:22:54;;;;;;;3.92;1.50;;;13.20;99.90;;;;;;4913510;29;20044;-87
2022/05/26 06:25:21;;;;;;;3.85;1.58;;;13.20;99.90;;;;;;4911350;29;20060;-85
2022/05/26 06:30:35;;;;;;;2.55;1.63;;;13.10;99.90;;;;;;4919672;29;20185;-86
2022/05/26 06:38:39;;;;;;;1.83;1.70;;;13.20;99.90;;;;;;4914410;29;20044;-85
2022/05/26 06:43:53;;;;;;;2.05;1.67;;;13.40;99.90;;;;;;4917604;28;20048;-86
2022/05/26 06:46:20;;;;;;;4.35;2.05;;;13.50;99.90;;;;;;4928008;28;20056;-87
2022/05/26 06:48:47;;;;;;;7.20;2.92;;;13.60;99.90;;;;;;4896845;29;20449;-86
2022/05/26 06:51:15;;;;;;;2.40;2.20;;;13.50;99.90;;;;;;4906204;29;20039;-85
2022/05/26 06:53:42;;;;;;;3.08;2.22;;;13.60;99.90;;;;;;4916643;29;20063;-87
2022/05/26 06:56:09;;;;;;;3.63;3.10;;;13.60;99.90;;;;;;4912213;29;20790;-85
2022/05/26 06:58:36;;;;;;;2.92;2.65;;;13.60;99.90;;;;;;4914909;29;20041;-86
2022/05/26 07:01:04;;;;;;;4.05;2.35;;;13.60;99.90;;;;;;4909407;29;20103;-87
2022/05/26 07:03:30;;;;;;;4.03;2.47;;;13.60;99.90;;;;;;4909374;29;20060;-88
2022/05/26 07:05:57;;;;;;;4.47;2.90;;;13.60;99.90;;;;;;4895146;29;20540;-87
2022/05/26 07:08:25;;;;;;;2.95;2.25;;;13.70;99.90;;;;;;4916640;29;20092;-87
2022/05/26 07:10:54;;;;;;;3.85;2.17;;;13.80;99.90;;;;;;4912011;29;20127;-88
2022/05/26 07:13:23;;;;;;;6.63;2.47;;;13.90;99.90;;;;;;4907061;28;20596;-85
2022/05/26 07:15:50;;;;;;;3.40;2.00;;;13.90;99.90;;;;;;4912556;29;20589;-88
2022/05/26 07:18:17;;;;;;;3.42;2.00;;;13.90;99.90;;;;;;4902674;29;20059;-87
2022/05/26 07:20:44;;;;;;;4.63;1.40;;;14.00;99.90;;;;;;4917326;29;20564;-85
2022/05/26 07:23:11;;;;;;;1.55;1.45;;;13.90;99.90;;;;;;4916990;29;20489;-85
2022/05/26 07:25:39;;;;;;;0.95;0.93;;;13.90;99.90;;;;;;4904140;29;20110;-85
2022/05/26 07:28:06;;;;;;;0.70;0.60;;;14.00;99.90;;;;;;4895673;29;20573;-85
2022/05/26 07:30:34;;;;;;;4.60;0.98;;;14.00;99.90;;;;;;4901220;29;20745;-86
2022/05/26 07:33:01;;;;;;;3.63;1.38;;;14.10;99.90;;;;;;4918532;29;20047;-85
2022/05/26 07:35:28;;;;;;;1.95;0.93;;;14.30;99.90;;;;;;4900876;29;20055;-88
2022/05/26 07:43:29;;;;;;;3.00;1.15;;;14.60;99.90;;;;;;4914480;29;20059;-87
2022/05/26 07:45:56;;;;;;;3.22;1.02;;;14.70;99.90;;;;;;4917972;29;20039;-86
2022/05/26 07:48:23;;;;;;;5.97;1.50;;;14.80;99.90;;;;;;4923676;29;20081;-87
2022/05/26 07:50:51;;;;;;;3.08;1.17;;;14.90;99.90;;;;;;4924885;29;20146;-87
2022/05/26 07:53:18;;;;;;;3.00;1.80;;;15.00;99.90;;;;;;4924907;29;20744;-89
2022/05/26 07:55:45;;;;;;;2.35;1.25;;;15.20;99.90;;;;;;4927373;29;20506;-87
2022/05/26 07:58:13;;;;;;;5.20;1.77;;;15.20;99.90;;;;;;4929640;29;20098;-87
2022/05/26 08:00:41;;;;;;;2.70;1.55;;;15.20;99.90;;;;;;4904034;29;20048;-87
2022/05/26 08:03:08;;;;;;;4.25;2.20;;;15.00;99.90;;;;;;4924907;29;20047;-87
2022/05/26 08:05:37;;;;;;;5.00;3.05;;;14.80;99.90;;;;;;4920270;28;20048;-86
2022/05/26 08:08:04;;;;;;;3.10;2.40;;;14.70;99.90;;;;;;4926339;29;20138;-86
2022/05/26 08:10:32;;;;;;;3.45;3.15;;;14.60;99.90;;;;;;4930715;28;20154;-87
2022/05/26 08:12:58;;;;;;;3.60;2.60;;;14.40;99.90;;;;;;4941077;28;20106;-86
2022/05/26 08:15:27;;;;;;;4.28;3.80;;;14.30;99.90;;;;;;4925401;28;20031;-88
2022/05/26 08:17:54;;;;;;;5.72;3.70;;;14.00;99.90;;;;;;4907402;29;20050;-86
2022/05/26 08:20:22;;;;;;;6.20;4.18;;;13.70;99.90;;;;;;4943993;28;20480;-87
2022/05/26 08:22:49;;;;;;;6.05;4.03;;;13.40;99.90;;;;;;4945796;28;20096;-86
2022/05/26 08:25:17;;;;;;;6.10;4.55;;;13.20;99.90;;;;;;4944456;28;20047;-87
2022/05/26 08:27:44;;;;;;;5.57;4.07;;;13.10;99.90;;;;;;4947564;28;20078;-87
2022/05/26 08:30:11;;;;;;;6.03;4.30;;;12.90;99.90;;;;;;4927711;28;20532;-87
2022/05/26 08:32:38;;;;;;;4.53;3.40;;;12.80;99.90;;;;;;4941703;28;20051;-87
2022/05/26 08:35:08;;;;;;;4.80;4.38;;;12.80;99.90;;;;;;4944093;28;20039;-87
2022/05/26 08:37:35;;;;;;;5.47;3.00;;;12.80;99.90;;;;;;4935284;28;20043;-87
2022/05/26 08:40:04;;;;;;;3.45;2.67;;;12.70;99.90;;;;;;4946080;28;20047;-87
2022/05/26 08:42:34;;;;;;;3.97;2.63;;;12.70;99.90;;;;;;4939554;28;20134;-90
2022/05/26 08:45:09;;;;;;;;;;;12.70;99.90;;;;;;4943810;28;20462;-89
2022/05/26 08:47:44;;;;;;;3.03;2.45;;;12.70;99.90;;;;;;4940043;28;20380;-89
2022/05/26 08:50:16;;;;;;;4.03;3.50;;;12.60;99.90;;;;;;4936725;28;20050;-88
2022/05/26 08:52:59;;;;;;;4.20;3.25;;;12.60;99.90;;;;;;4909083;29;20054;-87
2022/05/26 08:55:46;;;;;;;5.82;3.25;;;12.60;99.90;;;;;;4937019;28;20053;-87
2022/05/26 08:58:28;;;;;;;4.70;3.53;;;12.60;99.90;;;;;;4921284;29;20055;-87
2022/05/26 09:00:58;;;;;;;6.07;3.20;;;12.60;99.90;;;;;;4939474;28;20047;-87
2022/05/26 09:03:30;;;;;;;3.72;3.42;;;12.60;99.90;;;;;;4926533;28;20058;-87
2022/05/26 09:06:15;;;;;;;3.22;2.65;;;12.50;99.90;;;;;;4940593;28;20051;-84
2022/05/26 09:14:22;;;;;;;3.83;3.50;;;12.50;99.90;;;;;;4944619;28;20488;-84
2022/05/26 09:16:49;;;;;;;4.63;4.10;;;12.60;99.90;;;;;;4944561;28;20519;-86
2022/05/26 09:19:19;;;;;;;5.25;4.72;;;12.70;99.90;;;;;;4943289;28;20104;-87
2022/05/26 09:21:48;;;;;;;5.28;4.28;;;12.80;99.90;;;;;;4935364;28;20059;-86
2022/05/26 09:24:24;;;;;;;7.55;5.82;;;12.80;99.90;;;;;;4944817;28;20106;-88
2022/05/26 09:27:17;;;;;;;6.93;5.47;;;12.90;99.90;;;;;;4943043;28;20043;-86
2022/05/26 09:29:44;;;;;;;9.40;5.85;;;13.00;99.90;;;;;;4926935;28;20051;-85
2022/05/26 09:32:17;;;;;;;6.85;6.18;;;13.00;99.90;;;;;;4945177;28;20444;-85
2022/05/26 09:35:08;;;;;;;9.32;6.78;;;13.10;99.90;;;;;;4946985;28;20738;-86
2022/05/26 09:37:43;;;;;;;6.43;5.65;;;13.30;99.90;;;;;;4933113;28;20455;-85
2022/05/26 09:40:19;;;;;;;12.60;6.55;;;13.30;99.90;;;;;;4927202;29;20035;-88
2022/05/26 09:42:51;;;;;;;6.43;5.07;;;13.50;99.90;;;;;;4936551;28;20051;-86
2022/05/26 09:45:19;;;;;;;7.90;6.07;;;13.70;99.90;;;;;;4926372;28;20043;-87
2022/05/26 09:47:57;;;;;;;5.00;4.60;;;13.80;99.90;;;;;;4945397;28;20114;-86
2022/05/26 09:50:33;;;;;;;6.82;4.70;;;13.80;99.90;;;;;;4921372;28;20512;-86
2022/05/26 09:53:03;;;;;;;6.85;4.65;;;13.90;99.90;;;;;;4941566;28;20055;-87
2022/05/26 09:55:33;;;;;;;5.10;4.10;;;13.90;99.90;;;;;;4940868;28;20061;-87
2022/05/26 09:58:06;;;;;;;5.07;4.57;;;14.00;99.90;;;;;;4924856;29;20711;-88
2022/05/26 10:00:38;;;;;;;4.40;3.85;;;14.20;99.90;;;;;;4922599;29;20106;-88
2022/05/26 10:03:21;;;;;;;4.68;2.28;;;14.30;99.90;;;;;;4923531;29;20055;-88
2022/05/26 10:06:15;;;;;;;1.88;1.77;;;14.30;99.90;;;;;;4925154;29;20050;-88
2022/05/26 10:09:08;;;;;;;7.13;3.88;;;14.40;99.90;;;;;;4933745;28;20706;-88
2022/05/26 10:11:41;;;;;;;6.88;3.15;;;14.50;99.90;;;;;;4940099;28;20456;-88
2022/05/26 10:14:15;;;;;;;5.57;3.22;;;14.50;99.90;;;;;;4939421;28;20583;-86
2022/05/26 10:16:45;;;;;;;9.07;3.55;;;14.30;99.90;;;;;;4945834;28;20057;-89
2022/05/26 10:19:46;;;;;;;4.13;3.47;;;14.20;99.90;;;;;;4942602;28;20142;-87
2022/05/26 10:22:19;;;;;;;4.55;2.65;;;14.10;99.90;;;;;;4937772;28;20050;-87
2022/05/26 10:25:03;;;;;;;4.18;3.78;;;14.00;99.90;;;;;;4928615;29;20086;-88
2022/05/26 10:27:49;;;;;;;6.63;2.53;;;13.80;99.90;;;;;;4938613;28;20117;-88
2022/05/26 10:30:29;;;;;;;2.80;2.58;;;13.80;99.90;;;;;;4927275;28;20413;-88
2022/05/26 10:33:19;;;;;;;;;;;13.90;99.90;;;;;;4928851;29;20046;-87
2022/05/26 10:35:53;;;;;;;2.30;1.98;;;13.90;99.90;;;;;;4923989;28;20586;-88
2022/05/26 10:38:43;;;;;;;4.50;1.83;;;14.10;99.90;;;;;;4929465;29;20051;-90
2022/05/26 10:41:44;;;;;;;1.80;1.70;;;14.10;99.90;;;;;;4938411;28;20722;-87
2022/05/26 10:44:19;;;;;;;2.30;1.92;;;14.20;99.90;;;;;;4920438;29;20057;-88
2022/05/26 10:46:56;;;;;;;4.32;2.00;;;14.20;99.90;;;;;;4944861;28;20520;-88
2022/05/26 10:49:56;;;;;;;3.15;2.42;;;14.40;99.90;;;;;;4918865;28;20074;-88
2022/05/26 10:52:31;;;;;;;1.88;1.70;;;14.60;99.90;;;;;;4918088;28;20054;-88
2022/05/26 10:55:08;;;;;;;1.33;1.23;;;14.80;99.90;;;;;;4946706;28;20105;-89
2022/05/26 10:57:54;;;;;;;2.00;1.48;;;14.90;99.90;;;;;;4942722;28;20051;-89
2022/05/26 11:00:24;;;;;;;1.65;1.35;;;15.00;99.90;;;;;;4935376;28;20058;-88
2022/05/26 11:02:59;;;;;;;2.60;2.17;;;14.90;99.90;;;;;;4940436;28;20047;-88
2022/05/26 11:05:35;;;;;;;2.17;1.70;;;14.90;99.90;;;;;;4933774;28;20720;-87
2022/05/26 11:08:29;;;;;;;3.13;1.80;;;14.90;99.90;;;;;;4942345;28;20066;-86
2022/05/26 11:11:04;;;;;;;7.47;1.98;;;14.80;99.90;;;;;;4936104;28;20059;-87
2022/05/26 11:13:43;;;;;;;5.78;1.90;;;14.70;99.90;;;;;;4913525;28;20688;-87
2022/05/26 11:19:29;;;;;;;3.05;1.83;;;14.60;99.90;;;;;;4928605;28;20039;-87
2022/05/26 11:21:56;;;;;;;2.88;2.65;;;14.60;99.90;;;;;;4944746;28;20039;-87
2022/05/26 11:24:23;;;;;;;11.32;10.13;;;14.60;99.90;;;;;;4948400;28;20386;-87
2022/05/26 11:27:09;;;;;;;7.68;5.50;;;14.90;99.90;;;;;;4932482;28;20071;-88
2022/05/26 11:29:44;;;;;;;15.77;12.25;;;15.00;99.90;;;;;;4937071;28;20055;-87
2022/05/26 11:38:30;;;;;;;2.63;2.25;;;14.50;99.90;;;;;;4942909;28;20106;-88
2022/05/26 11:41:00;;;;;;;1.50;1.33;;;14.20;99.90;;;;;;4924760;28;20765;-87
2022/05/26 11:43:44;;;;;;;3.15;1.33;;;14.00;99.90;;;;;;4929252;28;20242;-86
2022/05/26 11:46:44;;;;;;;2.03;1.30;;;14.10;99.90;;;;;;4943172;28;20051;-90
2022/05/26 11:49:43;;;;;;;1.83;1.07;;;14.30;99.90;;;;;;4928224;29;20053;-87
2022/05/26 11:52:26;;;;;;;4.72;1.10;;;14.40;99.90;;;;;;4925545;28;20044;-86
2022/05/26 11:54:54;;;;;;;2.88;1.05;;;14.30;99.90;;;;;;4935801;28;20067;-86
2022/05/26 11:57:34;;;;;;;2.00;1.17;;;14.10;99.90;;;;;;4936890;28;20073;-89
2022/05/26 12:00:43;;;;;;;4.32;1.25;;;13.70;99.90;;;;;;4932642;28;20050;-88
2022/05/26 12:03:24;;;;;;;6.13;2.45;;;13.40;99.90;;;;;;4926111;28;20432;-86
2022/05/26 12:06:06;;;;;;;3.85;2.10;;;13.10;99.90;;;;;;4931607;28;20542;-86
2022/05/26 12:08:53;;;;;;;7.70;1.85;;;12.80;99.90;;;;;;4917133;29;20043;-88
2022/05/26 12:11:59;;;;;;;8.57;3.50;;;12.70;99.90;;;;;;4923661;28;20055;-87
2022/05/26 12:14:41;;;;;;;6.05;0.93;;;12.50;99.90;;;;;;4923750;29;20043;-89
2022/05/26 12:17:35;;;;;;;4.20;1.17;;;12.40;99.90;;;;;;4915835;29;20686;-87
2022/05/26 12:20:11;;;;;;;11.52;1.85;;;12.40;99.90;;;;;;4922125;29;20048;-88
2022/05/26 12:22:47;;;;;;;1.60;0.68;;;12.50;99.90;;;;;;4924920;29;20054;-86
2022/05/26 12:25:24;;;;;;;6.03;1.23;;;12.50;99.90;;;;;;4917430;29;20063;-89
2022/05/26 12:27:53;;;;;;;0.60;0.50;;;12.80;99.90;;;;;;4906233;29;20052;-88
2022/05/26 12:30:44;;;;;;;6.28;1.30;;;13.00;99.90;;;;;;4916029;29;20098;-87
2022/05/26 12:33:18;;;;;;;0.85;0.20;;;13.50;99.90;;;;;;4917628;29;20051;-87
2022/05/26 12:36:00;;;;;;;1.02;0.50;;;13.70;99.90;;;;;;4920505;29;20056;-87
2022/05/26 12:38:54;;;;;;;1.75;0.40;;;14.00;99.90;;;;;;4898732;29;20532;-87
2022/05/26 12:41:39;;;;;;;3.08;0.70;;;14.40;99.90;;;;;;4917323;29;20044;-88
2022/05/26 12:44:58;;;;;;;1.15;0.75;;;14.60;99.90;;;;;;4922212;28;20054;-87
2022/05/26 12:47:34;;;;;;;1.10;0.30;;;14.90;99.90;;;;;;4916066;29;20043;-90
2022/05/26 12:50:21;;;;;;;0.65;0.32;;;14.90;99.90;;;;;;4891953;29;20076;-87
2022/05/26 12:52:57;;;;;;;0.20;0.17;;;15.10;99.90;;;;;;4921416;29;20052;-87
2022/05/26 12:55:46;;;;;;;0.70;0.38;;;15.00;99.90;;;;;;4918499;29;20047;-87
2022/05/26 12:58:21;;;;;;;1.95;0.30;;;15.10;99.90;;;;;;4920795;28;20072;-86
2022/05/26 13:00:54;;;;;;;0.38;0.38;;;15.10;99.90;;;;;;4897755;29;20052;-89
2022/05/26 13:03:37;;;;;;;0.32;0.28;;;15.10;99.90;;;;;;4890560;29;20052;-86
2022/05/26 13:06:14;;;;;;;1.02;0.32;;;15.00;99.90;;;;;;4901901;28;20051;-89
2022/05/26 13:08:54;;;;;;;0.30;0.30;;;14.90;99.90;;;;;;4918716;29;20059;-88
2022/05/26 13:11:31;;;;;;;0.43;0.35;;;14.80;99.90;;;;;;4929119;28;20130;-86
2022/05/26 13:14:08;;;;;;;1.80;0.82;;;14.90;99.90;;;;;;4920825;28;20043;-90
2022/05/26 13:16:41;;;;;;;1.08;0.30;;;14.90;99.90;;;;;;4919243;29;20095;-88
2022/05/26 13:19:22;;;;;;;2.65;0.68;;;14.90;99.90;;;;;;4923175;28;20099;-87
2022/05/26 13:21:51;;;;;;;7.05;1.85;;;14.90;99.90;;;;;;4922479;28;20505;-88
2022/05/26 13:24:31;;;;;;;2.53;0.77;;;14.80;99.90;;;;;;4924331;29;20138;-88
2022/05/26 13:27:08;;;;;;;0.75;0.50;;;14.80;99.90;;;;;;4918442;28;20035;-87
2022/05/26 13:29:41;;;;;;;1.67;0.70;;;14.50;99.90;;;;;;4923899;28;20804;-88
2022/05/26 13:34:57;;;;;;;1.67;0.60;;;14.30;99.90;;;;;;4930506;28;20051;-87
2022/05/26 13:37:31;;;;;;;1.60;0.93;;;14.20;99.90;;;;;;4937557;28;20133;-87
2022/05/26 13:40:03;;;;;;;2.60;0.57;;;14.10;99.90;;;;;;4926127;28;20043;-88
2022/05/26 13:42:31;;;;;;;2.45;0.60;;;14.00;99.90;;;;;;4938254;28;20397;-87
2022/05/26 13:44:59;;;;;;;2.30;0.63;;;14.00;99.90;;;;;;4934246;28;20055;-90
2022/05/26 13:47:25;;;;;;;1.70;1.35;;;14.00;99.90;;;;;;4935308;28;20093;-87
2022/05/26 13:50:00;;;;;;;2.47;0.55;;;14.10;99.90;;;;;;4932153;28;20075;-87
2022/05/26 13:52:29;;;;;;;1.65;0.57;;;14.50;99.90;;;;;;4921125;28;20789;-86
2022/05/26 13:55:00;;;;;;;6.38;2.45;;;15.10;99.90;;;;;;4935426;28;20474;-88
2022/05/26 13:57:39;;;;;;;4.13;1.50;;;15.50;99.90;;;;;;4936229;28;20058;-86
2022/05/26 14:00:22;;;;;;;1.85;1.75;;;15.80;99.90;;;;;;4911810;28;21608;-88
2022/05/26 14:03:12;;;;;;;0.90;0.50;;;15.70;99.90;;;;;;4932117;28;20062;-85
2022/05/26 14:06:01;;;;;;;7.75;1.00;;;15.30;99.90;;;;;;4918884;29;20404;-85